sensor_id;sensor_type;location;lat;lon;timestamp;temperature;humidity
23591;DHT22;11973;52.098;7.582;2022-09-27T00:00:31;11.30;99.90
23591;DHT22;11973;52.098;7.582;2022-09-27T00:02:56;11.30;99.90
23591;DHT22;11973;52.098;7.582;2022-09-27T00:05:22;11.30;99.90
23591;DHT22;11973;52.098;7.582;2022-09-27T00:07:48;11.30;99.90
23591;DHT22;11973;52.098;7.582;2022-09-27T00:10:14;11.30;99.90
23591;DHT22;11973;52.098;7.582;2022-09-27T00:12:40;11.30;99.90
23591;DHT22;11973;52.098;7.582;2022-09-27T00:15:06;11.30;99.90
23591;DHT22;11973;52.098;7.582;2022-09-27T00:17:32;11.30;99.90
23591;DHT22;11973;52.098;7.582;2022-09-27T00:19:59;11.30;99.90
23591;DHT22;11973;52.098;7.582;2022-09-27T00:22:26;11.20;99.90
23591;DHT22;11973;52.098;7.582;2022-09-27T00:24:52;11.20;99.90
23591;DHT22;11973;52.098;7.582;2022-09-27T00:27:18;11.20;99.90
23591;DHT22;11973;52.098;7.582;2022-09-27T00:29:45;11.20;99.90
23591;DHT22;11973;52.098;7.582;2022-09-27T00:32:12;11.20;99.90
23591;DHT22;11973;52.098;7.582;2022-09-27T00:34:38;11.20;99.90
23591;DHT22;11973;52.098;7.582;2022-09-27T00:37:04;11.20;99.90
23591;DHT22;11973;52.098;7.582;2022-09-27T00:39:30;11.30;99.90
23591;DHT22;11973;52.098;7.582;2022-09-27T00:41:56;11.20;99.90
23591;DHT22;11973;52.098;7.582;2022-09-27T00:49:47;11.10;99.90
23591;DHT22;11973;52.098;7.582;2022-09-27T00:55:04;11.10;99.90
23591;DHT22;11973;52.098;7.582;2022-09-27T00:57:31;11.10;99.90
23591;DHT22;11973;52.098;7.582;2022-09-27T01:00:05;11.10;99.90
23591;DHT22;11973;52.098;7.582;2022-09-27T01:02:32;11.10;99.90
23591;DHT22;11973;52.098;7.582;2022-09-27T01:05:02;11.10;99.90
23591;DHT22;11973;52.098;7.582;2022-09-27T01:07:28;11.10;99.90
23591;DHT22;11973;52.098;7.582;2022-09-27T01:09:54;11.10;99.90
23591;DHT22;11973;52.098;7.582;2022-09-27T01:13:05;11.10;99.90
23591;DHT22;11973;52.098;7.582;2022-09-27T01:15:40;11.10;99.90
23591;DHT22;11973;52.098;7.582;2022-09-27T01:18:36;11.10;99.90
23591;DHT22;11973;52.098;7.582;2022-09-27T01:24:24;11.00;99.90
23591;DHT22;11973;52.098;7.582;2022-09-27T01:32:31;11.00;99.90
23591;DHT22;11973;52.098;7.582;2022-09-27T01:40:47;11.00;99.90
23591;DHT22;11973;52.098;7.582;2022-09-27T01:43:42;10.90;99.90
23591;DHT22;11973;52.098;7.582;2022-09-27T01:46:20;10.90;99.90
23591;DHT22;11973;52.098;7.582;2022-09-27T01:49:27;11.00;99.90
23591;DHT22;11973;52.098;7.582;2022-09-27T01:51:59;10.90;99.90
23591;DHT22;11973;52.098;7.582;2022-09-27T01:54:32;10.90;99.90
23591;DHT22;11973;52.098;7.582;2022-09-27T01:57:16;10.90;99.90
23591;DHT22;11973;52.098;7.582;2022-09-27T01:59:54;10.90;99.90
23591;DHT22;11973;52.098;7.582;2022-09-27T02:02:49;10.80;99.90
23591;DHT22;11973;52.098;7.582;2022-09-27T02:05:40;10.80;99.90
23591;DHT22;11973;52.098;7.582;2022-09-27T02:09:16;10.80;99.90
23591;DHT22;11973;52.098;7.582;2022-09-27T02:11:56;10.90;99.90
23591;DHT22;11973;52.098;7.582;2022-09-27T02:14:30;10.80;99.90
23591;DHT22;11973;52.098;7.582;2022-09-27T02:17:07;10.70;99.90
23591;DHT22;11973;52.098;7.582;2022-09-27T02:22:40;10.70;99.90
23591;DHT22;11973;52.098;7.582;2022-09-27T02:25:42;10.70;99.90
23591;DHT22;11973;52.098;7.582;2022-09-27T02:30:47;10.70;99.90
23591;DHT22;11973;52.098;7.582;2022-09-27T02:33:22;10.70;99.90
23591;DHT22;11973;52.098;7.582;2022-09-27T02:35:49;10.80;99.90
23591;DHT22;11973;52.098;7.582;2022-09-27T02:38:15;10.70;99.90
23591;DHT22;11973;52.098;7.582;2022-09-27T02:40:44;10.70;99.90
23591;DHT22;11973;52.098;7.582;2022-09-27T02:43:12;10.70;99.90
23591;DHT22;11973;52.098;7.582;2022-09-27T02:49:16;10.70;99.90
23591;DHT22;11973;52.098;7.582;2022-09-27T02:52:28;10.70;99.90
23591;DHT22;11973;52.098;7.582;2022-09-27T02:57:56;10.60;99.90
23591;DHT22;11973;52.098;7.582;2022-09-27T03:00:46;10.60;99.90
23591;DHT22;11973;52.098;7.582;2022-09-27T03:03:44;10.60;99.90
23591;DHT22;11973;52.098;7.582;2022-09-27T03:06:14;10.60;99.90
23591;DHT22;11973;52.098;7.582;2022-09-27T03:08:42;10.50;99.90
23591;DHT22;11973;52.098;7.582;2022-09-27T03:11:08;10.50;99.90
23591;DHT22;11973;52.098;7.582;2022-09-27T03:13:34;10.70;99.90
23591;DHT22;11973;52.098;7.582;2022-09-27T03:16:05;10.50;99.90
23591;DHT22;11973;52.098;7.582;2022-09-27T03:18:49;10.50;99.90
23591;DHT22;11973;52.098;7.582;2022-09-27T03:21:41;10.50;99.90
23591;DHT22;11973;52.098;7.582;2022-09-27T03:24:08;10.50;99.90
23591;DHT22;11973;52.098;7.582;2022-09-27T03:26:33;10.50;99.90
23591;DHT22;11973;52.098;7.582;2022-09-27T03:28:59;10.40;99.90
23591;DHT22;11973;52.098;7.582;2022-09-27T03:31:26;10.40;99.90
23591;DHT22;11973;52.098;7.582;2022-09-27T03:34:12;10.40;99.90
23591;DHT22;11973;52.098;7.582;2022-09-27T03:36:38;10.40;99.90
23591;DHT22;11973;52.098;7.582;2022-09-27T03:39:04;10.40;99.90
23591;DHT22;11973;52.098;7.582;2022-09-27T03:41:29;10.40;99.90
23591;DHT22;11973;52.098;7.582;2022-09-27T03:43:55;10.30;99.90
23591;DHT22;11973;52.098;7.582;2022-09-27T03:46:22;10.30;99.90
23591;DHT22;11973;52.098;7.582;2022-09-27T03:48:48;10.30;99.90
23591;DHT22;11973;52.098;7.582;2022-09-27T03:51:14;10.20;99.90
23591;DHT22;11973;52.098;7.582;2022-09-27T03:53:40;10.20;99.90
23591;DHT22;11973;52.098;7.582;2022-09-27T03:56:07;10.20;99.90
23591;DHT22;11973;52.098;7.582;2022-09-27T03:58:33;10.20;99.90
23591;DHT22;11973;52.098;7.582;2022-09-27T04:01:00;10.20;99.90
23591;DHT22;11973;52.098;7.582;2022-09-27T04:03:26;10.20;99.90
23591;DHT22;11973;52.098;7.582;2022-09-27T04:06:10;10.10;99.90
23591;DHT22;11973;52.098;7.582;2022-09-27T04:08:40;10.10;99.90
23591;DHT22;11973;52.098;7.582;2022-09-27T04:11:06;10.10;99.90
23591;DHT22;11973;52.098;7.582;2022-09-27T04:13:32;10.10;99.90
23591;DHT22;11973;52.098;7.582;2022-09-27T05:01:52;9.50;99.90
23591;DHT22;11973;52.098;7.582;2022-09-27T05:04:38;9.50;99.90
23591;DHT22;11973;52.098;7.582;2022-09-27T05:07:07;9.50;99.90
23591;DHT22;11973;52.098;7.582;2022-09-27T05:09:41;9.50;99.90
23591;DHT22;11973;52.098;7.582;2022-09-27T05:12:07;9.50;99.90
23591;DHT22;11973;52.098;7.582;2022-09-27T05:14:43;9.40;99.90
23591;DHT22;11973;52.098;7.582;2022-09-27T05:17:28;9.40;99.90
23591;DHT22;11973;52.098;7.582;2022-09-27T05:20:12;9.40;99.90
23591;DHT22;11973;52.098;7.582;2022-09-27T05:22:48;9.30;99.90
23591;DHT22;11973;52.098;7.582;2022-09-27T05:25:14;9.30;99.90
23591;DHT22;11973;52.098;7.582;2022-09-27T05:27:40;9.30;99.90
23591;DHT22;11973;52.098;7.582;2022-09-27T05:30:06;9.30;99.90
23591;DHT22;11973;52.098;7.582;2022-09-27T05:32:54;9.30;99.90
23591;DHT22;11973;52.098;7.582;2022-09-27T05:35:25;9.30;99.90
23591;DHT22;11973;52.098;7.582;2022-09-27T05:37:58;9.30;99.90
23591;DHT22;11973;52.098;7.582;2022-09-27T05:40:27;9.40;99.90
23591;DHT22;11973;52.098;7.582;2022-09-27T05:42:54;9.30;99.90
23591;DHT22;11973;52.098;7.582;2022-09-27T05:45:21;9.30;99.90
23591;DHT22;11973;52.098;7.582;2022-09-27T05:47:55;9.30;99.90
23591;DHT22;11973;52.098;7.582;2022-09-27T05:50:23;9.30;99.90
23591;DHT22;11973;52.098;7.582;2022-09-27T05:52:49;9.30;99.90
23591;DHT22;11973;52.098;7.582;2022-09-27T05:55:16;9.30;99.90
23591;DHT22;11973;52.098;7.582;2022-09-27T05:57:53;9.30;99.90
23591;DHT22;11973;52.098;7.582;2022-09-27T06:00:19;9.30;99.90
23591;DHT22;11973;52.098;7.582;2022-09-27T06:02:55;9.30;99.90
23591;DHT22;11973;52.098;7.582;2022-09-27T06:05:27;9.30;99.90
23591;DHT22;11973;52.098;7.582;2022-09-27T06:08:12;9.50;99.90
23591;DHT22;11973;52.098;7.582;2022-09-27T06:10:45;9.30;99.90
23591;DHT22;11973;52.098;7.582;2022-09-27T06:13:14;9.30;99.90
23591;DHT22;11973;52.098;7.582;2022-09-27T06:15:43;9.40;99.90
23591;DHT22;11973;52.098;7.582;2022-09-27T06:18:12;9.40;99.90
23591;DHT22;11973;52.098;7.582;2022-09-27T06:20:41;9.50;99.90
23591;DHT22;11973;52.098;7.582;2022-09-27T06:23:15;9.50;99.90
23591;DHT22;11973;52.098;7.582;2022-09-27T06:25:43;9.60;99.90
23591;DHT22;11973;52.098;7.582;2022-09-27T06:28:18;9.60;99.90
23591;DHT22;11973;52.098;7.582;2022-09-27T06:30:48;9.70;99.90
23591;DHT22;11973;52.098;7.582;2022-09-27T06:33:22;9.80;99.90
23591;DHT22;11973;52.098;7.582;2022-09-27T06:35:53;9.80;99.90
23591;DHT22;11973;52.098;7.582;2022-09-27T06:38:19;9.80;99.90
23591;DHT22;11973;52.098;7.582;2022-09-27T06:41:05;9.90;99.90
23591;DHT22;11973;52.098;7.582;2022-09-27T06:43:51;9.90;99.90
23591;DHT22;11973;52.098;7.582;2022-09-27T06:46:35;10.00;99.90
23591;DHT22;11973;52.098;7.582;2022-09-27T06:49:28;10.00;99.90
23591;DHT22;11973;52.098;7.582;2022-09-27T06:51:56;10.00;99.90
23591;DHT22;11973;52.098;7.582;2022-09-27T06:54:22;10.10;99.90
23591;DHT22;11973;52.098;7.582;2022-09-27T06:56:48;10.10;99.90
23591;DHT22;11973;52.098;7.582;2022-09-27T06:59:14;10.20;99.90
23591;DHT22;11973;52.098;7.582;2022-09-27T07:02:33;10.10;99.90
23591;DHT22;11973;52.098;7.582;2022-09-27T07:05:13;10.20;99.90
23591;DHT22;11973;52.098;7.582;2022-09-27T07:07:59;10.20;99.90
23591;DHT22;11973;52.098;7.582;2022-09-27T07:10:28;10.20;99.90
23591;DHT22;11973;52.098;7.582;2022-09-27T07:12:55;10.20;99.90
23591;DHT22;11973;52.098;7.582;2022-09-27T07:15:23;10.20;99.90
23591;DHT22;11973;52.098;7.582;2022-09-27T07:17:59;10.30;99.90
23591;DHT22;11973;52.098;7.582;2022-09-27T07:20:27;10.30;99.90
23591;DHT22;11973;52.098;7.582;2022-09-27T07:22:57;10.30;99.90
23591;DHT22;11973;52.098;7.582;2022-09-27T07:25:24;10.30;99.90
23591;DHT22;11973;52.098;7.582;2022-09-27T07:27:51;10.40;99.90
23591;DHT22;11973;52.098;7.582;2022-09-27T07:30:20;10.50;99.90
23591;DHT22;11973;52.098;7.582;2022-09-27T07:32:46;10.50;99.90
23591;DHT22;11973;52.098;7.582;2022-09-27T07:35:13;10.60;99.90
23591;DHT22;11973;52.098;7.582;2022-09-27T07:37:40;10.80;99.90
23591;DHT22;11973;52.098;7.582;2022-09-27T07:40:07;10.90;99.90
23591;DHT22;11973;52.098;7.582;2022-09-27T07:42:35;11.00;99.90
23591;DHT22;11973;52.098;7.582;2022-09-27T07:45:08;11.00;99.90
23591;DHT22;11973;52.098;7.582;2022-09-27T07:48:02;11.10;99.90
23591;DHT22;11973;52.098;7.582;2022-09-27T07:50:52;11.20;99.90
23591;DHT22;11973;52.098;7.582;2022-09-27T07:53:37;11.20;99.90
23591;DHT22;11973;52.098;7.582;2022-09-27T07:56:23;11.30;99.90
23591;DHT22;11973;52.098;7.582;2022-09-27T07:58:49;11.30;99.90
23591;DHT22;11973;52.098;7.582;2022-09-27T08:01:15;11.30;99.90
23591;DHT22;11973;52.098;7.582;2022-09-27T08:03:41;11.30;99.90
23591;DHT22;11973;52.098;7.582;2022-09-27T08:06:10;11.30;99.90
23591;DHT22;11973;52.098;7.582;2022-09-27T08:08:37;11.30;99.90
23591;DHT22;11973;52.098;7.582;2022-09-27T08:11:15;11.40;99.90
23591;DHT22;11973;52.098;7.582;2022-09-27T08:13:42;11.40;99.90
23591;DHT22;11973;52.098;7.582;2022-09-27T08:16:08;11.40;99.90
23591;DHT22;11973;52.098;7.582;2022-09-27T08:19:07;11.40;99.90
23591;DHT22;11973;52.098;7.582;2022-09-27T08:21:46;11.50;99.90
23591;DHT22;11973;52.098;7.582;2022-09-27T08:24:21;11.50;99.90
23591;DHT22;11973;52.098;7.582;2022-09-27T08:27:13;11.50;99.90
23591;DHT22;11973;52.098;7.582;2022-09-27T08:29:59;11.70;99.90
23591;DHT22;11973;52.098;7.582;2022-09-27T08:32:25;11.70;99.90
23591;DHT22;11973;52.098;7.582;2022-09-27T08:34:52;11.80;99.90
23591;DHT22;11973;52.098;7.582;2022-09-27T08:37:20;11.80;99.90
23591;DHT22;11973;52.098;7.582;2022-09-27T08:39:47;11.90;99.90
23591;DHT22;11973;52.098;7.582;2022-09-27T08:42:44;12.00;99.90
23591;DHT22;11973;52.098;7.582;2022-09-27T08:45:29;12.00;99.90
23591;DHT22;11973;52.098;7.582;2022-09-27T08:47:59;12.00;99.90
23591;DHT22;11973;52.098;7.582;2022-09-27T08:50:31;12.00;99.90
23591;DHT22;11973;52.098;7.582;2022-09-27T08:55:42;12.10;99.90
23591;DHT22;11973;52.098;7.582;2022-09-27T08:58:38;12.20;99.90
23591;DHT22;11973;52.098;7.582;2022-09-27T09:01:15;12.30;99.90
23591;DHT22;11973;52.098;7.582;2022-09-27T09:03:55;12.30;99.90
23591;DHT22;11973;52.098;7.582;2022-09-27T09:06:34;12.30;99.90
23591;DHT22;11973;52.098;7.582;2022-09-27T09:09:12;12.30;99.90
23591;DHT22;11973;52.098;7.582;2022-09-27T09:15:02;12.40;99.90
23591;DHT22;11973;52.098;7.582;2022-09-27T09:29:31;12.70;99.90
23591;DHT22;11973;52.098;7.582;2022-09-27T09:34:25;12.90;99.90
23591;DHT22;11973;52.098;7.582;2022-09-27T09:39:41;13.00;99.90
23591;DHT22;11973;52.098;7.582;2022-09-27T09:44:52;12.90;99.90
23591;DHT22;11973;52.098;7.582;2022-09-27T09:47:44;12.90;99.90
23591;DHT22;11973;52.098;7.582;2022-09-27T09:52:58;13.10;99.90
23591;DHT22;11973;52.098;7.582;2022-09-27T09:55:34;13.20;99.90
23591;DHT22;11973;52.098;7.582;2022-09-27T10:01:51;13.30;99.90
23591;DHT22;11973;52.098;7.582;2022-09-27T10:04:20;13.40;99.90
23591;DHT22;11973;52.098;7.582;2022-09-27T10:06:48;13.40;99.90
23591;DHT22;11973;52.098;7.582;2022-09-27T10:09:16;13.30;99.90
23591;DHT22;11973;52.098;7.582;2022-09-27T10:12:06;13.30;99.90
23591;DHT22;11973;52.098;7.582;2022-09-27T10:14:33;13.30;99.90
23591;DHT22;11973;52.098;7.582;2022-09-27T10:17:08;13.40;99.90
23591;DHT22;11973;52.098;7.582;2022-09-27T10:19:35;13.40;99.90
23591;DHT22;11973;52.098;7.582;2022-09-27T10:22:27;13.40;99.90
23591;DHT22;11973;52.098;7.582;2022-09-27T10:24:59;13.40;99.90
23591;DHT22;11973;52.098;7.582;2022-09-27T10:27:47;13.50;99.90
23591;DHT22;11973;52.098;7.582;2022-09-27T10:30:28;13.70;99.90
23591;DHT22;11973;52.098;7.582;2022-09-27T10:33:05;13.80;99.90
23591;DHT22;11973;52.098;7.582;2022-09-27T10:35:46;14.00;99.90
23591;DHT22;11973;52.098;7.582;2022-09-27T10:38:32;14.20;99.90
23591;DHT22;11973;52.098;7.582;2022-09-27T10:41:41;14.30;99.90
23591;DHT22;11973;52.098;7.582;2022-09-27T10:46:53;14.20;99.90
23591;DHT22;11973;52.098;7.582;2022-09-27T10:49:35;14.20;99.90
23591;DHT22;11973;52.098;7.582;2022-09-27T10:54:34;14.00;99.90
23591;DHT22;11973;52.098;7.582;2022-09-27T10:57:15;14.00;99.90
23591;DHT22;11973;52.098;7.582;2022-09-27T10:59:43;14.00;99.90
23591;DHT22;11973;52.098;7.582;2022-09-27T11:02:28;14.00;99.90
23591;DHT22;11973;52.098;7.582;2022-09-27T11:07:59;14.00;99.90
23591;DHT22;11973;52.098;7.582;2022-09-27T11:13:25;13.90;99.90
23591;DHT22;11973;52.098;7.582;2022-09-27T11:27:09;13.90;99.90
23591;DHT22;11973;52.098;7.582;2022-09-27T11:30:00;13.90;99.90
23591;DHT22;11973;52.098;7.582;2022-09-27T11:48:45;12.90;99.90
23591;DHT22;11973;52.098;7.582;2022-09-27T11:58:05;12.10;99.90
23591;DHT22;11973;52.098;7.582;2022-09-27T12:01:11;11.90;99.90
23591;DHT22;11973;52.098;7.582;2022-09-27T12:03:50;11.80;99.90
23591;DHT22;11973;52.098;7.582;2022-09-27T12:09:22;11.70;99.90
23591;DHT22;11973;52.098;7.582;2022-09-27T12:11:59;11.90;99.90
23591;DHT22;11973;52.098;7.582;2022-09-27T12:14:58;12.00;99.90
23591;DHT22;11973;52.098;7.582;2022-09-27T12:17:32;12.10;99.90
23591;DHT22;11973;52.098;7.582;2022-09-27T12:20:05;12.30;99.90
23591;DHT22;11973;52.098;7.582;2022-09-27T12:22:56;12.40;99.90
23591;DHT22;11973;52.098;7.582;2022-09-27T12:25:36;12.50;99.90
23591;DHT22;11973;52.098;7.582;2022-09-27T12:28:25;12.50;99.90
23591;DHT22;11973;52.098;7.582;2022-09-27T12:31:08;12.50;99.90
23591;DHT22;11973;52.098;7.582;2022-09-27T12:34:03;12.50;99.90
23591;DHT22;11973;52.098;7.582;2022-09-27T12:36:33;12.50;99.90
23591;DHT22;11973;52.098;7.582;2022-09-27T12:39:21;12.60;99.90
23591;DHT22;11973;52.098;7.582;2022-09-27T12:41:59;12.80;99.90
23591;DHT22;11973;52.098;7.582;2022-09-27T12:44:39;13.00;99.90
23591;DHT22;11973;52.098;7.582;2022-09-27T12:47:29;13.20;99.90
23591;DHT22;11973;52.098;7.582;2022-09-27T12:50:27;13.30;99.90
23591;DHT22;11973;52.098;7.582;2022-09-27T12:53:25;13.40;99.90
23591;DHT22;11973;52.098;7.582;2022-09-27T12:56:24;13.50;99.90
23591;DHT22;11973;52.098;7.582;2022-09-27T12:59:10;13.70;99.90
23591;DHT22;11973;52.098;7.582;2022-09-27T13:10:09;13.60;99.90
23591;DHT22;11973;52.098;7.582;2022-09-27T13:12:47;13.40;99.90
23591;DHT22;11973;52.098;7.582;2022-09-27T13:15:35;13.30;99.90
23591;DHT22;11973;52.098;7.582;2022-09-27T13:18:04;13.20;99.90
23591;DHT22;11973;52.098;7.582;2022-09-27T13:20:42;13.10;99.90
23591;DHT22;11973;52.098;7.582;2022-09-27T13:23:50;13.00;99.90
23591;DHT22;11973;52.098;7.582;2022-09-27T13:26:42;12.80;99.90
23591;DHT22;11973;52.098;7.582;2022-09-27T13:29:38;12.70;99.90
23591;DHT22;11973;52.098;7.582;2022-09-27T13:32:20;12.60;99.90
23591;DHT22;11973;52.098;7.582;2022-09-27T13:35:16;12.50;99.90
23591;DHT22;11973;52.098;7.582;2022-09-27T13:37:56;12.50;99.90
23591;DHT22;11973;52.098;7.582;2022-09-27T13:40:39;12.50;99.90
23591;DHT22;11973;52.098;7.582;2022-09-27T13:43:38;12.40;99.90
23591;DHT22;11973;52.098;7.582;2022-09-27T13:46:26;12.40;99.90
23591;DHT22;11973;52.098;7.582;2022-09-27T13:49:14;12.50;99.90
23591;DHT22;11973;52.098;7.582;2022-09-27T13:52:02;12.60;99.90
23591;DHT22;11973;52.098;7.582;2022-09-27T13:57:01;12.80;99.90
23591;DHT22;11973;52.098;7.582;2022-09-27T13:59:35;13.00;99.90
23591;DHT22;11973;52.098;7.582;2022-09-27T14:05:26;13.30;99.90
23591;DHT22;11973;52.098;7.582;2022-09-27T14:07:54;13.40;99.90
23591;DHT22;11973;52.098;7.582;2022-09-27T14:10:21;13.50;99.90
23591;DHT22;11973;52.098;7.582;2022-09-27T14:12:51;13.60;99.90
23591;DHT22;11973;52.098;7.582;2022-09-27T14:15:28;13.70;99.90
23591;DHT22;11973;52.098;7.582;2022-09-27T14:17:57;13.80;99.90
23591;DHT22;11973;52.098;7.582;2022-09-27T14:20:39;13.80;99.90
23591;DHT22;11973;52.098;7.582;2022-09-27T14:23:19;13.80;99.90
23591;DHT22;11973;52.098;7.582;2022-09-27T14:25:49;13.80;99.90
23591;DHT22;11973;52.098;7.582;2022-09-27T14:31:17;13.70;99.90
23591;DHT22;11973;52.098;7.582;2022-09-27T14:34:06;13.70;99.90
23591;DHT22;11973;52.098;7.582;2022-09-27T14:36:35;13.80;99.90
23591;DHT22;11973;52.098;7.582;2022-09-27T14:39:27;13.80;99.90
23591;DHT22;11973;52.098;7.582;2022-09-27T14:41:56;13.80;99.90
23591;DHT22;11973;52.098;7.582;2022-09-27T14:44:22;13.80;99.90
23591;DHT22;11973;52.098;7.582;2022-09-27T14:47:16;13.70;99.90
23591;DHT22;11973;52.098;7.582;2022-09-27T14:49:48;13.60;99.90
23591;DHT22;11973;52.098;7.582;2022-09-27T14:52:23;13.60;99.90
23591;DHT22;11973;52.098;7.582;2022-09-27T14:55:04;13.50;99.90
23591;DHT22;11973;52.098;7.582;2022-09-27T14:57:31;13.50;99.90
23591;DHT22;11973;52.098;7.582;2022-09-27T15:00:21;13.40;99.90
23591;DHT22;11973;52.098;7.582;2022-09-27T15:02:47;13.30;99.90
23591;DHT22;11973;52.098;7.582;2022-09-27T15:05:17;13.30;99.90
23591;DHT22;11973;52.098;7.582;2022-09-27T15:07:44;13.10;99.90
23591;DHT22;11973;52.098;7.582;2022-09-27T15:10:19;13.00;99.90
23591;DHT22;11973;52.098;7.582;2022-09-27T15:12:50;12.90;99.90
23591;DHT22;11973;52.098;7.582;2022-09-27T15:15:21;12.90;99.90
23591;DHT22;11973;52.098;7.582;2022-09-27T15:17:48;12.90;99.90
23591;DHT22;11973;52.098;7.582;2022-09-27T15:20:35;12.90;99.90
23591;DHT22;11973;52.098;7.582;2022-09-27T15:23:02;12.90;99.90
23591;DHT22;11973;52.098;7.582;2022-09-27T15:25:31;12.90;99.90
23591;DHT22;11973;52.098;7.582;2022-09-27T15:30:38;12.90;99.90
23591;DHT22;11973;52.098;7.582;2022-09-27T15:33:28;12.80;99.90
23591;DHT22;11973;52.098;7.582;2022-09-27T15:36:02;12.80;99.90
23591;DHT22;11973;52.098;7.582;2022-09-27T15:41:00;12.70;99.90
23591;DHT22;11973;52.098;7.582;2022-09-27T15:43:39;12.70;99.90
23591;DHT22;11973;52.098;7.582;2022-09-27T15:46:35;12.60;99.90
23591;DHT22;11973;52.098;7.582;2022-09-27T15:49:20;12.60;99.90
23591;DHT22;11973;52.098;7.582;2022-09-27T15:51:50;12.50;99.90
23591;DHT22;11973;52.098;7.582;2022-09-27T15:54:18;12.50;99.90
23591;DHT22;11973;52.098;7.582;2022-09-27T15:56:44;12.40;99.90
23591;DHT22;11973;52.098;7.582;2022-09-27T15:59:19;12.40;99.90
23591;DHT22;11973;52.098;7.582;2022-09-27T16:01:46;12.40;99.90
23591;DHT22;11973;52.098;7.582;2022-09-27T16:04:12;12.40;99.90
23591;DHT22;11973;52.098;7.582;2022-09-27T16:06:38;12.30;99.90
23591;DHT22;11973;52.098;7.582;2022-09-27T16:09:13;12.30;99.90
23591;DHT22;11973;52.098;7.582;2022-09-27T16:11:41;12.40;99.90
23591;DHT22;11973;52.098;7.582;2022-09-27T16:14:06;12.30;99.90
23591;DHT22;11973;52.098;7.582;2022-09-27T16:16:33;12.30;99.90
23591;DHT22;11973;52.098;7.582;2022-09-27T16:18:58;12.20;99.90
23591;DHT22;11973;52.098;7.582;2022-09-27T16:21:24;12.20;99.90
23591;DHT22;11973;52.098;7.582;2022-09-27T16:23:50;12.20;99.90
23591;DHT22;11973;52.098;7.582;2022-09-27T16:26:16;12.20;99.90
23591;DHT22;11973;52.098;7.582;2022-09-27T16:28:44;12.10;99.90
23591;DHT22;11973;52.098;7.582;2022-09-27T16:31:12;12.20;99.90
23591;DHT22;11973;52.098;7.582;2022-09-27T16:33:39;12.10;99.90
23591;DHT22;11973;52.098;7.582;2022-09-27T16:36:06;12.10;99.90
23591;DHT22;11973;52.098;7.582;2022-09-27T16:38:40;12.10;99.90
23591;DHT22;11973;52.098;7.582;2022-09-27T16:41:06;12.10;99.90
23591;DHT22;11973;52.098;7.582;2022-09-27T16:43:32;12.00;99.90
23591;DHT22;11973;52.098;7.582;2022-09-27T16:46:08;12.00;99.90
23591;DHT22;11973;52.098;7.582;2022-09-27T16:48:36;11.90;99.90
23591;DHT22;11973;52.098;7.582;2022-09-27T16:51:04;11.90;99.90
23591;DHT22;11973;52.098;7.582;2022-09-27T16:53:49;11.90;99.90
23591;DHT22;11973;52.098;7.582;2022-09-27T16:56:15;11.90;99.90
23591;DHT22;11973;52.098;7.582;2022-09-27T16:58:43;11.90;99.90
23591;DHT22;11973;52.098;7.582;2022-09-27T17:01:09;11.80;99.90
23591;DHT22;11973;52.098;7.582;2022-09-27T17:03:34;12.00;99.90
23591;DHT22;11973;52.098;7.582;2022-09-27T17:06:01;11.80;99.90
23591;DHT22;11973;52.098;7.582;2022-09-27T17:08:29;11.70;99.90
23591;DHT22;11973;52.098;7.582;2022-09-27T17:10:55;11.70;99.90
23591;DHT22;11973;52.098;7.582;2022-09-27T17:13:22;11.70;99.90
23591;DHT22;11973;52.098;7.582;2022-09-27T17:15:48;11.60;99.90
23591;DHT22;11973;52.098;7.582;2022-09-27T17:18:14;11.60;99.90
23591;DHT22;11973;52.098;7.582;2022-09-27T17:20:40;11.50;99.90
23591;DHT22;11973;52.098;7.582;2022-09-27T17:23:06;11.50;99.90
23591;DHT22;11973;52.098;7.582;2022-09-27T17:25:33;11.40;99.90
23591;DHT22;11973;52.098;7.582;2022-09-27T17:27:59;11.40;99.90
23591;DHT22;11973;52.098;7.582;2022-09-27T17:30:25;11.30;99.90
23591;DHT22;11973;52.098;7.582;2022-09-27T17:32:52;11.20;99.90
23591;DHT22;11973;52.098;7.582;2022-09-27T17:35:17;11.20;99.90
23591;DHT22;11973;52.098;7.582;2022-09-27T17:37:43;11.20;99.90
23591;DHT22;11973;52.098;7.582;2022-09-27T17:40:09;11.10;99.90
23591;DHT22;11973;52.098;7.582;2022-09-27T17:42:38;11.10;99.90
23591;DHT22;11973;52.098;7.582;2022-09-27T17:45:04;11.10;99.90
23591;DHT22;11973;52.098;7.582;2022-09-27T17:47:30;11.00;99.90
23591;DHT22;11973;52.098;7.582;2022-09-27T17:50:14;11.20;99.90
23591;DHT22;11973;52.098;7.582;2022-09-27T17:52:50;10.90;99.90
23591;DHT22;11973;52.098;7.582;2022-09-27T17:55:16;10.90;99.90
23591;DHT22;11973;52.098;7.582;2022-09-27T17:57:42;10.90;99.90
23591;DHT22;11973;52.098;7.582;2022-09-27T18:00:08;10.90;99.90
23591;DHT22;11973;52.098;7.582;2022-09-27T18:02:38;10.80;99.90
23591;DHT22;11973;52.098;7.582;2022-09-27T18:05:04;10.80;99.90
23591;DHT22;11973;52.098;7.582;2022-09-27T18:07:30;10.80;99.90
23591;DHT22;11973;52.098;7.582;2022-09-27T18:09:56;10.70;99.90
23591;DHT22;11973;52.098;7.582;2022-09-27T18:12:22;10.70;99.90
23591;DHT22;11973;52.098;7.582;2022-09-27T18:15:00;10.70;99.90
23591;DHT22;11973;52.098;7.582;2022-09-27T18:17:26;10.60;99.90
23591;DHT22;11973;52.098;7.582;2022-09-27T18:19:53;10.60;99.90
23591;DHT22;11973;52.098;7.582;2022-09-27T18:22:22;10.60;99.90
23591;DHT22;11973;52.098;7.582;2022-09-27T18:24:53;10.60;99.90
23591;DHT22;11973;52.098;7.582;2022-09-27T18:27:20;10.60;99.90
23591;DHT22;11973;52.098;7.582;2022-09-27T18:29:46;10.60;99.90
23591;DHT22;11973;52.098;7.582;2022-09-27T18:32:11;10.50;99.90
23591;DHT22;11973;52.098;7.582;2022-09-27T18:34:37;10.50;99.90
23591;DHT22;11973;52.098;7.582;2022-09-27T18:37:04;10.50;99.90
23591;DHT22;11973;52.098;7.582;2022-09-27T18:39:30;10.40;99.90
23591;DHT22;11973;52.098;7.582;2022-09-27T18:41:56;10.40;99.90
23591;DHT22;11973;52.098;7.582;2022-09-27T18:44:22;10.40;99.90
23591;DHT22;11973;52.098;7.582;2022-09-27T18:46:49;10.40;99.90
23591;DHT22;11973;52.098;7.582;2022-09-27T18:49:15;10.30;99.90
23591;DHT22;11973;52.098;7.582;2022-09-27T18:51:42;10.30;99.90
23591;DHT22;11973;52.098;7.582;2022-09-27T18:54:19;10.30;99.90
23591;DHT22;11973;52.098;7.582;2022-09-27T18:56:46;10.20;99.90
23591;DHT22;11973;52.098;7.582;2022-09-27T18:59:12;10.20;99.90
23591;DHT22;11973;52.098;7.582;2022-09-27T19:01:40;10.20;99.90
23591;DHT22;11973;52.098;7.582;2022-09-27T19:04:10;10.20;99.90
23591;DHT22;11973;52.098;7.582;2022-09-27T19:06:38;10.20;99.90
23591;DHT22;11973;52.098;7.582;2022-09-27T19:09:05;10.20;99.90
23591;DHT22;11973;52.098;7.582;2022-09-27T19:11:31;10.20;99.90
23591;DHT22;11973;52.098;7.582;2022-09-27T19:13:58;10.10;99.90
23591;DHT22;11973;52.098;7.582;2022-09-27T19:16:26;10.20;99.90
23591;DHT22;11973;52.098;7.582;2022-09-27T19:18:52;10.10;99.90